createdAt,value
2022-10-06T00:01:29.112Z,6.97
2022-10-06T00:04:33.535Z,8.55
2022-10-06T00:07:38.018Z,10.50
2022-10-06T00:13:47.111Z,9.33
2022-10-06T00:16:51.169Z,9.82
2022-10-06T00:19:55.407Z,14.00
2022-10-06T00:22:59.878Z,14.15
2022-10-06T00:26:04.666Z,14.85
2022-10-06T00:29:08.965Z,16.40
2022-10-06T00:32:13.382Z,14.38
2022-10-06T00:35:17.668Z,14.35
2022-10-06T00:38:22.655Z,16.27
2022-10-06T00:41:27.302Z,20.58
2022-10-06T00:44:31.392Z,11.82
2022-10-06T00:47:35.958Z,13.73
2022-10-06T00:50:41.221Z,9.77
2022-10-06T00:53:46.209Z,15.07
2022-10-06T00:56:50.787Z,10.75
2022-10-06T00:59:55.807Z,8.10
2022-10-06T01:03:12.970Z,12.68
2022-10-06T01:06:17.806Z,13.00
2022-10-06T01:09:23.463Z,9.68
2022-10-06T01:12:31.182Z,12.73
2022-10-06T01:15:36.121Z,9.52
2022-10-06T01:18:42.753Z,15.10
2022-10-06T01:21:48.731Z,8.82
2022-10-06T01:24:53.453Z,11.75
2022-10-06T01:28:00.107Z,9.27
2022-10-06T01:31:07.485Z,9.82
2022-10-06T01:34:11.793Z,9.63
2022-10-06T01:37:16.579Z,4.85
2022-10-06T01:40:21.011Z,11.98
2022-10-06T01:43:26.380Z,2.60
2022-10-06T01:49:35.439Z,4.45
2022-10-06T01:52:39.903Z,5.63
2022-10-06T01:55:46.465Z,6.35
2022-10-06T01:58:54.663Z,8.27
2022-10-06T02:01:59.577Z,8.90
2022-10-06T02:05:04.526Z,8.13
2022-10-06T02:08:10.517Z,5.13
2022-10-06T02:11:15.021Z,5.95
2022-10-06T02:14:20.206Z,5.10
2022-10-06T02:17:25.062Z,4.22
2022-10-06T02:20:29.462Z,2.72
2022-10-06T02:23:33.766Z,2.22
2022-10-06T02:26:38.747Z,4.90
2022-10-06T02:29:43.404Z,7.50
2022-10-06T02:32:47.820Z,7.00
2022-10-06T02:35:56.465Z,3.67
2022-10-06T02:39:01.647Z,1.92
2022-10-06T02:42:06.577Z,4.72
2022-10-06T02:45:11.021Z,5.53
2022-10-06T02:48:15.355Z,4.05
2022-10-06T02:51:21.576Z,5.95
2022-10-06T02:54:26.322Z,6.05
2022-10-06T02:57:30.914Z,6.85
2022-10-06T03:00:36.251Z,10.13
2022-10-06T03:03:40.887Z,6.68
2022-10-06T03:06:45.394Z,5.15
2022-10-06T03:10:01.116Z,7.03
2022-10-06T03:16:30.500Z,8.20
2022-10-06T03:19:37.267Z,6.28
2022-10-06T03:22:41.987Z,3.30
2022-10-06T03:25:56.441Z,5.85
2022-10-06T03:29:01.737Z,5.75
2022-10-06T03:32:06.368Z,11.38
2022-10-06T03:35:11.769Z,9.00
2022-10-06T03:38:17.246Z,9.55
2022-10-06T03:41:25.044Z,10.52
2022-10-06T03:44:32.243Z,10.25
2022-10-06T03:47:36.599Z,18.25
2022-10-06T03:50:41.632Z,5.22
2022-10-06T03:53:48.021Z,10.15
2022-10-06T03:56:53.878Z,13.90
2022-10-06T03:59:59.855Z,6.13
2022-10-06T04:03:04.294Z,8.55
2022-10-06T04:06:12.572Z,14.57
2022-10-06T04:09:16.947Z,9.68
2022-10-06T04:12:22.408Z,12.60
2022-10-06T04:15:27.247Z,13.68
2022-10-06T04:18:32.202Z,13.68
2022-10-06T04:21:39.690Z,16.63
2022-10-06T04:24:46.389Z,12.35
2022-10-06T04:27:50.563Z,6.80
2022-10-06T04:30:56.870Z,12.55
2022-10-06T04:34:01.996Z,8.13
2022-10-06T04:37:07.190Z,8.00
2022-10-06T04:40:13.411Z,10.98
2022-10-06T04:43:18.335Z,13.35
2022-10-06T04:46:42.279Z,12.80
2022-10-06T04:49:48.459Z,6.47
2022-10-06T04:52:53.599Z,10.60
2022-10-06T04:56:03.658Z,11.27
2022-10-06T04:59:09.849Z,12.63
2022-10-06T05:02:16.967Z,12.05
2022-10-06T05:05:22.097Z,20.40
2022-10-06T05:08:28.636Z,10.88
2022-10-06T05:11:33.702Z,13.88
2022-10-06T05:14:39.508Z,6.18
2022-10-06T05:20:57.033Z,9.97
2022-10-06T05:24:02.856Z,11.70
2022-10-06T05:27:07.681Z,13.55
2022-10-06T05:30:12.713Z,15.13
2022-10-06T05:33:17.055Z,9.18
2022-10-06T05:36:23.884Z,16.33
2022-10-06T05:39:30.300Z,15.27
2022-10-06T05:42:35.948Z,11.60
2022-10-06T05:45:40.340Z,13.88
2022-10-06T05:48:49.913Z,16.05
2022-10-06T05:51:56.938Z,17.65
2022-10-06T05:55:05.174Z,14.73
2022-10-06T05:58:10.301Z,21.67
2022-10-06T06:04:21.505Z,20.25
2022-10-06T06:07:29.883Z,14.18
2022-10-06T06:13:39.139Z,11.85
2022-10-06T06:16:49.773Z,11.98
2022-10-06T06:19:54.033Z,18.20
2022-10-06T06:22:58.254Z,22.73
2022-10-06T06:26:11.221Z,18.45
2022-10-06T06:29:19.362Z,14.70
2022-10-06T06:32:27.355Z,15.82
2022-10-06T06:35:31.823Z,24.50
2022-10-06T06:41:45.060Z,18.75
2022-10-06T06:45:09.736Z,21.55
2022-10-06T06:48:20.593Z,13.15
2022-10-06T06:51:25.584Z,20.92
2022-10-06T06:54:29.654Z,16.13
2022-10-06T06:57:47.209Z,19.38
2022-10-06T07:00:51.843Z,23.90
2022-10-06T07:03:59.314Z,19.42
2022-10-06T07:07:09.848Z,17.05
2022-10-06T07:10:15.094Z,18.55
2022-10-06T07:13:20.469Z,20.95
2022-10-06T07:16:43.560Z,17.08
2022-10-06T07:19:50.812Z,23.65
2022-10-06T07:23:14.906Z,28.20
2022-10-06T07:26:19.409Z,16.23
2022-10-06T07:29:24.539Z,25.33
2022-10-06T07:35:38.987Z,33.15
2022-10-06T07:38:43.903Z,14.77
2022-10-06T07:41:48.317Z,24.60
2022-10-06T07:45:11.328Z,22.83
2022-10-06T07:48:20.368Z,23.40
2022-10-06T07:51:29.879Z,23.42
2022-10-06T07:54:35.621Z,21.77
2022-10-06T07:57:55.313Z,20.70
2022-10-06T08:01:08.380Z,12.05
2022-10-06T08:04:13.723Z,19.30
2022-10-06T08:07:18.138Z,22.88
2022-10-06T08:10:22.682Z,34.13
2022-10-06T08:13:27.337Z,25.67
2022-10-06T08:16:31.876Z,20.40
2022-10-06T08:19:36.118Z,22.50
2022-10-06T08:22:41.109Z,21.50
2022-10-06T08:25:51.140Z,15.32
2022-10-06T08:29:02.866Z,13.70
2022-10-06T08:32:07.022Z,25.25
2022-10-06T08:35:11.593Z,15.45
2022-10-06T08:38:16.371Z,20.17
2022-10-06T08:41:32.572Z,15.88
2022-10-06T08:44:44.483Z,17.75
2022-10-06T08:48:17.418Z,24.08
2022-10-06T08:51:49.165Z,16.17
2022-10-06T08:55:05.027Z,20.55
2022-10-06T08:58:30.760Z,14.52
2022-10-06T09:01:44.947Z,12.55
2022-10-06T09:04:50.905Z,15.73
2022-10-06T09:08:07.305Z,19.63
2022-10-06T09:11:33.214Z,16.50
2022-10-06T09:14:45.110Z,13.77
2022-10-06T09:18:18.716Z,19.05
2022-10-06T09:21:33.033Z,19.00
2022-10-06T09:24:47.157Z,12.83
2022-10-06T09:27:57.133Z,21.95
2022-10-06T09:31:03.439Z,21.67
2022-10-06T09:34:26.449Z,15.63
2022-10-06T09:37:54.283Z,18.02
2022-10-06T09:40:58.526Z,17.52
2022-10-06T09:44:24.445Z,24.13
2022-10-06T09:47:39.628Z,15.82
2022-10-06T09:54:14.795Z,14.63
2022-10-06T09:57:25.361Z,16.35
2022-10-06T10:00:30.969Z,13.98
2022-10-06T10:04:01.924Z,15.27
2022-10-06T10:07:26.599Z,11.35
2022-10-06T10:10:31.374Z,17.88
2022-10-06T10:16:53.085Z,16.33
2022-10-06T10:19:59.016Z,15.82
2022-10-06T10:23:31.966Z,14.75
2022-10-06T10:26:53.692Z,16.20
2022-10-06T10:30:03.374Z,16.73
2022-10-06T10:33:14.683Z,12.38
2022-10-06T10:36:22.198Z,13.73
2022-10-06T10:39:32.014Z,14.70
2022-10-06T10:43:00.542Z,13.95
2022-10-06T10:46:34.584Z,16.55
2022-10-06T10:49:44.311Z,8.88
2022-10-06T10:52:51.568Z,18.10
2022-10-06T10:55:56.662Z,16.85
2022-10-06T10:59:24.686Z,19.98
2022-10-06T11:02:30.042Z,17.15
2022-10-06T11:06:08.657Z,18.15
2022-10-06T11:09:17.490Z,24.90
2022-10-06T11:12:56.716Z,18.85
2022-10-06T11:16:26.250Z,21.83
2022-10-06T11:19:56.513Z,16.77
2022-10-06T11:23:22.162Z,19.25
2022-10-06T11:26:50.762Z,17.75
2022-10-06T11:30:19.603Z,13.50
2022-10-06T11:33:50.475Z,20.50
2022-10-06T11:37:09.342Z,14.57
2022-10-06T11:40:14.068Z,17.75
2022-10-06T11:43:40.999Z,13.05
2022-10-06T11:47:34.836Z,19.00
2022-10-06T11:50:46.786Z,19.97
2022-10-06T11:53:51.922Z,13.45
2022-10-06T11:56:56.363Z,14.90
2022-10-06T12:00:16.038Z,17.40
2022-10-06T12:03:31.062Z,16.58
2022-10-06T12:06:45.218Z,22.08
2022-10-06T12:09:52.431Z,17.10
2022-10-06T12:14:01.520Z,15.80
2022-10-06T12:20:21.547Z,24.30
2022-10-06T12:23:47.798Z,14.13
2022-10-06T12:27:23.510Z,15.07
2022-10-06T12:31:15.780Z,12.80
2022-10-06T12:34:56.080Z,14.32
2022-10-06T12:38:06.127Z,13.07
2022-10-06T12:41:12.968Z,17.40
2022-10-06T12:44:34.379Z,25.45
2022-10-06T12:47:43.383Z,17.38
2022-10-06T12:50:54.717Z,13.63
2022-10-06T12:54:20.226Z,17.63
2022-10-06T12:57:30.564Z,20.25
2022-10-06T13:00:39.599Z,19.27
2022-10-06T13:03:48.379Z,14.93
2022-10-06T13:06:52.416Z,21.92
2022-10-06T13:10:15.245Z,19.20
2022-10-06T13:13:24.878Z,17.38
2022-10-06T13:16:33.008Z,14.00
2022-10-06T13:19:38.711Z,17.75
2022-10-06T13:22:43.026Z,17.92
2022-10-06T13:25:53.498Z,14.43
2022-10-06T13:28:59.554Z,29.60
2022-10-06T13:32:16.351Z,23.17
2022-10-06T13:35:25.689Z,23.27
2022-10-06T13:38:34.843Z,15.05
2022-10-06T13:41:46.819Z,15.57
2022-10-06T13:44:58.570Z,17.95
2022-10-06T13:48:15.168Z,18.23
2022-10-06T13:51:29.589Z,13.95
2022-10-06T13:54:45.939Z,10.50
2022-10-06T13:58:05.218Z,23.00
2022-10-06T14:01:13.178Z,19.88
2022-10-06T14:04:19.067Z,16.25
2022-10-06T14:07:23.299Z,15.25
2022-10-06T14:10:49.001Z,18.45
2022-10-06T14:14:15.625Z,13.13
2022-10-06T14:17:25.494Z,15.13
2022-10-06T14:20:42.166Z,20.63
2022-10-06T14:23:54.202Z,18.25
2022-10-06T14:27:06.078Z,14.23
2022-10-06T14:30:11.173Z,20.67
2022-10-06T14:33:16.227Z,20.65
2022-10-06T14:36:28.023Z,19.00
2022-10-06T14:39:32.199Z,32.28
2022-10-06T14:42:36.681Z,17.95
2022-10-06T14:45:43.116Z,19.88
2022-10-06T14:48:47.799Z,11.10
2022-10-06T14:51:55.806Z,18.83
2022-10-06T14:55:00.546Z,11.65
2022-10-06T14:58:05.131Z,21.75
2022-10-06T15:01:10.895Z,17.10
2022-10-06T15:04:19.389Z,15.73
2022-10-06T15:07:42.257Z,19.65
2022-10-06T15:10:52.078Z,21.52
2022-10-06T15:13:58.017Z,20.95
2022-10-06T15:17:02.204Z,22.10
2022-10-06T15:20:07.391Z,18.85
2022-10-06T15:23:11.826Z,13.50
2022-10-06T15:29:41.094Z,15.05
2022-10-06T15:36:16.801Z,19.88
2022-10-06T15:39:23.804Z,24.67
2022-10-06T15:42:28.342Z,15.90
2022-10-06T15:48:37.394Z,28.85
2022-10-06T15:51:50.252Z,21.77
2022-10-06T15:54:54.696Z,21.90
2022-10-06T15:57:59.252Z,17.73
2022-10-06T16:01:03.823Z,18.63
2022-10-06T16:04:21.366Z,18.00
2022-10-06T16:07:25.692Z,16.00
2022-10-06T16:10:30.210Z,14.32
2022-10-06T16:13:34.285Z,21.50
2022-10-06T16:16:43.352Z,18.08
2022-10-06T16:19:47.970Z,19.40
2022-10-06T16:22:52.455Z,21.25
2022-10-06T16:26:00.828Z,15.93
2022-10-06T16:29:05.587Z,30.30
2022-10-06T16:32:10.060Z,20.05
2022-10-06T16:38:23.857Z,18.00
2022-10-06T16:41:28.260Z,19.20
2022-10-06T16:44:32.457Z,29.35
2022-10-06T16:47:36.638Z,16.30
2022-10-06T16:50:41.137Z,20.02
2022-10-06T16:53:47.288Z,28.58
2022-10-06T16:56:53.937Z,24.67
2022-10-06T17:00:00.302Z,32.33
2022-10-06T17:03:04.687Z,18.67
2022-10-06T17:06:12.425Z,15.13
2022-10-06T17:09:19.554Z,19.20
2022-10-06T17:12:24.152Z,13.90
2022-10-06T17:15:33.278Z,23.50
2022-10-06T17:18:37.920Z,20.88
2022-10-06T17:21:47.444Z,24.05
2022-10-06T17:24:53.029Z,24.10
2022-10-06T17:27:57.502Z,23.42
2022-10-06T17:31:02.576Z,10.20
2022-10-06T17:34:11.333Z,18.23
2022-10-06T17:37:17.268Z,14.65
2022-10-06T17:40:21.435Z,26.58
2022-10-06T17:43:25.862Z,19.23
2022-10-06T17:46:32.651Z,26.83
2022-10-06T17:49:37.066Z,26.20
2022-10-06T17:52:41.630Z,16.17
2022-10-06T17:55:47.567Z,29.30
2022-10-06T17:58:57.154Z,34.10
2022-10-06T18:02:03.119Z,26.92
2022-10-06T18:05:07.719Z,21.33
2022-10-06T18:08:13.025Z,27.73
2022-10-06T18:11:37.772Z,24.92
2022-10-06T18:14:43.338Z,18.33
2022-10-06T18:17:50.485Z,21.77
2022-10-06T18:21:02.153Z,27.70
2022-10-06T18:24:10.051Z,30.52
2022-10-06T18:27:15.042Z,23.70
2022-10-06T18:30:19.292Z,27.90
2022-10-06T18:36:48.040Z,34.07
2022-10-06T18:39:52.433Z,29.25
2022-10-06T18:42:56.856Z,30.20
2022-10-06T18:46:20.951Z,17.35
2022-10-06T18:49:25.514Z,29.35
2022-10-06T18:52:30.035Z,28.60
2022-10-06T18:55:34.847Z,25.50
2022-10-06T18:58:40.134Z,30.27
2022-10-06T19:01:47.212Z,22.35
2022-10-06T19:04:52.079Z,32.60
2022-10-06T19:07:56.370Z,24.52
2022-10-06T19:11:32.550Z,31.05
2022-10-06T19:14:42.869Z,17.58
2022-10-06T19:17:47.472Z,32.08
2022-10-06T19:20:52.136Z,19.33
2022-10-06T19:23:57.084Z,21.27
2022-10-06T19:27:05.043Z,26.30
2022-10-06T19:30:09.651Z,22.00
2022-10-06T19:33:14.052Z,29.02
2022-10-06T19:36:18.757Z,32.97
2022-10-06T19:39:26.731Z,19.80
2022-10-06T19:42:50.568Z,24.27
2022-10-06T19:45:58.429Z,26.73
2022-10-06T19:49:06.648Z,34.17
2022-10-06T19:52:12.441Z,24.05
2022-10-06T19:55:16.871Z,24.83
2022-10-06T19:58:21.486Z,24.63
2022-10-06T20:07:36.064Z,29.08
2022-10-06T20:10:40.333Z,27.88
2022-10-06T20:16:51.987Z,23.75
2022-10-06T20:19:57.722Z,25.65
2022-10-06T20:23:02.708Z,31.73
2022-10-06T20:26:12.099Z,34.88
2022-10-06T20:29:19.116Z,26.08
2022-10-06T20:32:23.554Z,31.10
2022-10-06T20:35:28.040Z,31.88
2022-10-06T20:38:51.245Z,35.05
2022-10-06T20:41:56.162Z,32.47
2022-10-06T20:45:00.866Z,30.92
2022-10-06T20:48:05.203Z,33.08
2022-10-06T20:51:12.330Z,23.52
2022-10-06T20:54:22.052Z,32.58
2022-10-06T20:57:31.379Z,20.23
2022-10-06T21:00:38.056Z,31.88
2022-10-06T21:03:44.735Z,32.63
2022-10-06T21:06:50.100Z,34.80
2022-10-06T21:09:54.552Z,18.10
2022-10-06T21:12:58.836Z,24.35
2022-10-06T21:16:03.938Z,23.80
2022-10-06T21:19:13.577Z,33.08
2022-10-06T21:22:17.852Z,32.75
2022-10-06T21:25:22.096Z,28.50
2022-10-06T21:28:26.283Z,27.80
2022-10-06T21:31:30.919Z,24.67
2022-10-06T21:34:35.093Z,25.52
2022-10-06T21:37:39.403Z,32.30
2022-10-06T21:40:43.943Z,26.30
2022-10-06T21:43:48.236Z,31.80
2022-10-06T21:46:54.475Z,20.20
2022-10-06T21:49:59.044Z,25.65
2022-10-06T21:53:03.275Z,30.35
2022-10-06T21:56:07.972Z,24.88
2022-10-06T21:59:13.008Z,37.72
2022-10-06T22:02:17.523Z,26.75
2022-10-06T22:05:21.775Z,21.90
2022-10-06T22:08:26.033Z,36.28
2022-10-06T22:11:33.237Z,37.95
2022-10-06T22:14:37.819Z,22.55
2022-10-06T22:17:42.321Z,27.75
2022-10-06T22:20:46.753Z,25.00
2022-10-06T22:23:56.319Z,37.40
2022-10-06T22:27:00.855Z,37.38
2022-10-06T22:30:06.082Z,42.65
2022-10-06T22:33:10.690Z,39.35
2022-10-06T22:36:15.276Z,26.40
2022-10-06T22:39:19.873Z,28.38
2022-10-06T22:42:24.360Z,29.08
2022-10-06T22:45:28.814Z,28.88
2022-10-06T22:48:33.291Z,30.52
2022-10-06T22:51:37.721Z,27.00
2022-10-06T22:57:47.294Z,31.27
2022-10-06T23:03:57.260Z,22.38
2022-10-06T23:07:01.762Z,21.95
2022-10-06T23:13:11.075Z,21.13
2022-10-06T23:16:17.738Z,28.20
2022-10-06T23:19:23.451Z,32.53
2022-10-06T23:22:27.697Z,22.15
2022-10-06T23:25:35.859Z,24.85
2022-10-06T23:28:40.648Z,20.55
2022-10-06T23:31:45.416Z,26.23
2022-10-06T23:34:50.031Z,41.88
2022-10-06T23:40:59.308Z,32.60
2022-10-06T23:44:03.616Z,29.25
2022-10-06T23:47:08.094Z,34.70
2022-10-06T23:50:12.567Z,30.48
2022-10-06T23:53:16.979Z,23.73
2022-10-06T23:56:21.772Z,21.05
2022-10-06T23:59:26.239Z,19.05
